createdAt,value
2019-04-26T04:20:48.194Z,99.90
2019-04-26T04:24:11.315Z,99.90
2019-04-26T04:27:34.109Z,99.90
2019-04-26T04:31:04.354Z,99.90
2019-04-26T04:34:37.115Z,99.90
2019-04-26T04:38:07.771Z,99.90
2019-04-26T04:41:24.894Z,99.90
2019-04-26T04:45:35.002Z,99.90
2019-04-26T04:49:27.767Z,99.90
2019-04-26T04:52:48.267Z,99.90
2019-04-26T04:57:03.780Z,99.90
2019-04-26T05:00:30.860Z,99.90
2019-04-26T05:04:08.092Z,99.90
2019-04-26T05:18:04.187Z,99.90
2019-04-26T05:21:45.403Z,99.90
2019-04-26T05:26:31.970Z,99.90
2019-04-26T05:30:24.472Z,99.90
2019-04-26T05:34:22.383Z,99.90
2019-04-26T05:53:13.749Z,99.90
2019-04-26T05:56:54.285Z,99.90
2019-04-26T06:00:29.511Z,99.90
2019-04-26T06:04:30.670Z,99.90
2019-04-26T06:09:12.157Z,99.90
2019-04-26T06:12:52.421Z,99.90
2019-04-26T06:16:14.247Z,99.90
2019-04-26T06:19:49.571Z,99.90
2019-04-26T06:23:42.913Z,99.90
2019-04-26T06:27:28.014Z,99.90
2019-04-26T06:31:04.748Z,99.90
2019-04-26T06:34:20.665Z,99.90
2019-04-26T06:37:45.703Z,99.90
2019-04-26T06:42:00.805Z,99.90
2019-04-26T06:45:51.833Z,99.90
2019-04-26T06:50:11.501Z,99.90
2019-04-26T06:53:44.824Z,99.90
2019-04-26T06:58:01.087Z,99.90
2019-04-26T07:01:44.735Z,99.90
2019-04-26T07:05:07.843Z,99.90
2019-04-26T07:08:57.274Z,99.90
2019-04-26T07:12:38.054Z,99.90
2019-04-26T07:16:28.471Z,99.90
2019-04-26T07:20:26.604Z,99.90
2019-04-26T07:24:56.826Z,99.90
2019-04-26T07:28:20.257Z,99.90
2019-04-26T07:32:05.251Z,99.90
2019-04-26T07:35:30.475Z,99.90
2019-04-26T07:39:24.239Z,99.90
2019-04-26T07:43:24.263Z,99.90
2019-04-26T07:47:30.782Z,99.90
2019-04-26T07:51:29.784Z,99.90
2019-04-26T07:55:28.429Z,99.90
2019-04-26T07:59:05.997Z,99.90
2019-04-26T08:02:47.119Z,99.90
2019-04-26T08:06:48.737Z,99.90
2019-04-26T08:10:08.181Z,99.90
2019-04-26T08:13:17.362Z,99.90
2019-04-26T08:16:50.600Z,99.90
2019-04-26T08:21:02.425Z,99.90
2019-04-26T08:24:27.937Z,99.90
2019-04-26T08:27:32.956Z,99.90
2019-04-26T08:30:44.918Z,99.90
2019-04-26T08:33:59.444Z,99.90
2019-04-26T08:37:18.957Z,99.90
2019-04-26T08:40:30.776Z,99.90
2019-04-26T08:43:50.800Z,99.90
2019-04-26T08:47:09.518Z,99.90
2019-04-26T08:50:22.332Z,99.90
2019-04-26T08:53:28.156Z,99.90
2019-04-26T08:56:36.960Z,99.90
2019-04-26T08:59:47.371Z,99.90
2019-04-26T09:03:12.051Z,99.90
2019-04-26T09:06:23.141Z,99.90
2019-04-26T09:09:32.310Z,99.90
2019-04-26T09:12:39.796Z,99.90
2019-04-26T09:16:11.530Z,99.90
2019-04-26T09:19:14.971Z,99.90
2019-04-26T09:22:28.737Z,99.90
2019-04-26T09:25:39.226Z,99.90
2019-04-26T09:29:01.298Z,99.90
2019-04-26T09:32:32.975Z,99.90
2019-04-26T09:35:36.375Z,99.90
2019-04-26T09:38:39.399Z,99.90
2019-04-26T09:41:42.337Z,99.90
2019-04-26T09:44:53.377Z,99.90
2019-04-26T09:48:13.892Z,99.90
2019-04-26T09:51:16.807Z,99.90
2019-04-26T09:54:20.123Z,99.90
2019-04-26T09:57:23.055Z,99.90
2019-04-26T10:00:28.644Z,99.90
2019-04-26T10:03:34.412Z,99.90
2019-04-26T10:06:37.481Z,99.90
2019-04-26T10:09:40.517Z,99.90
2019-04-26T10:12:54.294Z,99.90
2019-04-26T10:16:06.380Z,99.90
2019-04-26T10:19:12.468Z,99.90
2019-04-26T10:22:15.610Z,99.90
2019-04-26T10:25:19.602Z,99.90
2019-04-26T10:28:22.708Z,99.90
2019-04-26T10:31:25.834Z,99.90
2019-04-26T10:34:29.473Z,99.90
2019-04-26T10:37:39.223Z,99.90
2019-04-26T10:40:37.960Z,99.90
2019-04-26T10:43:41.339Z,99.90
2019-04-26T10:46:54.980Z,99.90
2019-04-26T10:49:49.591Z,99.90
2019-04-26T10:53:02.662Z,99.90
2019-04-26T10:56:35.920Z,99.90
2019-04-26T10:59:51.946Z,99.90
2019-04-26T11:02:54.956Z,99.90
2019-04-26T11:05:57.884Z,99.90
2019-04-26T11:09:00.794Z,99.90
2019-04-26T11:12:06.425Z,99.90
2019-04-26T11:15:11.911Z,99.90
2019-04-26T11:18:14.855Z,99.90
2019-04-26T11:21:20.946Z,99.90
2019-04-26T11:24:24.345Z,99.90
2019-04-26T11:27:27.249Z,99.90
2019-04-26T11:30:30.191Z,99.90
2019-04-26T11:33:44.455Z,99.90
2019-04-26T11:36:41.825Z,99.90
2019-04-26T11:39:44.607Z,99.90
2019-04-26T11:42:48.191Z,99.90
2019-04-26T11:45:52.218Z,99.90
2019-04-26T11:48:59.194Z,99.90
2019-04-26T11:52:02.910Z,99.90
2019-04-26T11:55:06.848Z,99.90
2019-04-26T11:58:10.240Z,99.90
2019-04-26T12:01:15.299Z,99.90
2019-04-26T12:04:38.684Z,99.90
2019-04-26T12:07:50.988Z,99.90
2019-04-26T12:10:54.329Z,99.90
2019-04-26T12:13:59.461Z,99.90
2019-04-26T12:17:03.678Z,99.90
2019-04-26T12:20:06.946Z,99.90
2019-04-26T12:23:13.663Z,99.90
2019-04-26T12:26:17.306Z,99.90
2019-04-26T12:29:19.731Z,99.90
2019-04-26T12:32:22.931Z,99.90
2019-04-26T12:35:26.149Z,99.90
2019-04-26T12:38:30.114Z,99.90
2019-04-26T12:41:40.481Z,99.90
2019-04-26T12:45:01.125Z,99.90
2019-04-26T12:48:12.063Z,99.90
2019-04-26T12:51:13.519Z,99.90
2019-04-26T12:54:16.537Z,99.90
2019-04-26T12:57:19.481Z,99.90
2019-04-26T13:00:28.496Z,99.90
2019-04-26T13:03:31.543Z,99.90
2019-04-26T13:06:39.575Z,99.90
2019-04-26T13:10:01.101Z,99.90
2019-04-26T13:13:22.372Z,99.90
2019-04-26T13:16:30.255Z,99.90
2019-04-26T13:19:33.477Z,98.90
2019-04-26T13:22:45.868Z,99.90
2019-04-26T13:25:41.201Z,99.90
2019-04-26T13:28:44.124Z,99.10
2019-04-26T13:31:47.062Z,99.90
2019-04-26T13:34:50.349Z,99.70
2019-04-26T13:37:53.946Z,99.90
2019-04-26T13:40:59.601Z,99.50
2019-04-26T13:44:05.703Z,99.10
2019-04-26T13:47:31.970Z,98.50
2019-04-26T13:50:38.323Z,98.20
2019-04-26T13:53:41.245Z,99.60
2019-04-26T13:56:44.144Z,99.90
2019-04-26T13:59:47.461Z,97.40
2019-04-26T14:02:50.399Z,97.10
2019-04-26T14:05:53.727Z,96.10
2019-04-26T14:08:58.212Z,97.10
2019-04-26T14:12:02.076Z,95.10
2019-04-26T14:15:08.612Z,94.40
2019-04-26T14:18:11.732Z,94.40
2019-04-26T14:21:15.043Z,94.30
2019-04-26T14:24:46.508Z,95.70
2019-04-26T14:27:51.628Z,96.30
2019-04-26T14:30:54.614Z,98.00
2019-04-26T14:34:01.255Z,96.40
2019-04-26T14:37:06.623Z,96.40
2019-04-26T14:40:17.146Z,95.70
2019-04-26T14:43:13.840Z,94.90
2019-04-26T14:46:17.152Z,95.80
2019-04-26T14:49:23.325Z,93.80
2019-04-26T14:52:27.774Z,93.60
2019-04-26T14:55:30.089Z,93.80
2019-04-26T14:58:33.712Z,94.10
2019-04-26T15:02:02.652Z,94.60
2019-04-26T15:05:38.270Z,93.10
2019-04-26T15:08:46.916Z,94.20
2019-04-26T15:11:55.302Z,92.60
2019-04-26T15:14:53.857Z,93.00
2019-04-26T15:17:59.471Z,93.90
2019-04-26T15:21:04.235Z,94.20
2019-04-26T15:24:07.334Z,93.50
2019-04-26T15:27:10.544Z,91.80
2019-04-26T15:30:13.584Z,90.70
2019-04-26T15:33:16.582Z,90.50
2019-04-26T15:36:19.814Z,86.60
2019-04-26T15:39:34.349Z,87.60
2019-04-26T15:43:00.870Z,87.90
2019-04-26T15:46:17.994Z,86.00
2019-04-26T15:49:49.847Z,88.90
2019-04-26T15:52:52.778Z,89.40
2019-04-26T15:55:55.722Z,87.70
2019-04-26T15:58:58.635Z,91.00
2019-04-26T16:02:02.530Z,88.00
2019-04-26T16:05:06.225Z,86.50
2019-04-26T16:08:09.460Z,87.40
2019-04-26T18:31:07.758Z,99.90
2019-04-26T18:34:10.684Z,99.90
2019-04-26T18:37:13.649Z,99.90
2019-04-26T18:40:16.587Z,99.90
2019-04-26T18:43:24.112Z,99.90
2019-04-26T18:46:35.751Z,99.90
2019-04-26T18:49:39.283Z,99.90
2019-04-26T18:52:56.522Z,99.90
2019-04-26T18:55:59.237Z,99.90
2019-04-26T18:59:03.252Z,99.90
2019-04-26T19:02:06.493Z,99.90
2019-04-26T19:05:12.482Z,99.90
2019-04-26T19:08:15.118Z,99.90
2019-04-26T19:11:18.112Z,99.90
2019-04-26T19:15:03.165Z,99.90
2019-04-26T20:36:54.604Z,99.90
2019-04-26T20:40:16.204Z,99.90
2019-04-26T20:43:06.674Z,99.90
2019-04-26T20:46:14.049Z,99.90
2019-04-26T20:49:12.255Z,99.90
2019-04-26T20:52:16.604Z,99.90
2019-04-26T20:55:25.205Z,99.90
2019-04-26T20:58:25.465Z,99.90
2019-04-26T21:01:29.140Z,99.90
2019-04-26T21:04:38.045Z,99.90
2019-04-26T21:07:36.876Z,99.90
2019-04-26T21:10:41.588Z,99.90
2019-04-26T21:13:45.890Z,99.90
2019-04-26T21:16:49.736Z,99.90
2019-04-26T21:19:54.899Z,99.90
2019-04-26T21:23:02.432Z,99.90
2019-04-26T21:26:23.388Z,99.90
2019-04-26T21:29:58.784Z,99.90
2019-04-26T21:33:28.676Z,99.90
2019-04-26T21:36:48.426Z,99.90
2019-04-26T21:39:56.807Z,99.90
2019-04-26T21:43:00.693Z,99.90
2019-04-26T21:46:08.602Z,99.90
2019-04-26T21:49:08.946Z,99.90
2019-04-26T21:52:13.651Z,99.90
2019-04-26T21:55:17.096Z,99.90
2019-04-26T21:58:20.019Z,99.90
2019-04-26T22:01:23.456Z,99.90
2019-04-26T22:04:28.759Z,99.90
2019-04-26T22:07:35.130Z,99.90
2019-04-26T22:10:43.760Z,99.90
2019-04-26T22:14:04.435Z,99.90
2019-04-26T22:17:13.539Z,99.90
2019-04-26T22:20:29.704Z,99.90
2019-04-26T22:23:54.802Z,99.90
2019-04-26T22:26:58.739Z,99.90
2019-04-26T22:30:03.606Z,99.90
2019-04-26T22:33:07.128Z,99.90
2019-04-26T22:36:10.039Z,99.90
2019-04-26T22:39:17.271Z,99.90
2019-04-26T22:42:21.078Z,99.90
2019-04-26T22:45:39.594Z,99.90
2019-04-26T22:48:44.062Z,99.90
2019-04-26T22:51:47.107Z,99.90
2019-04-26T22:54:50.405Z,99.90
2019-04-26T22:57:53.323Z,99.90
2019-04-26T23:00:58.495Z,99.90
2019-04-26T23:04:03.327Z,99.90
2019-04-26T23:07:08.467Z,99.90
2019-04-26T23:10:13.305Z,99.90
2019-04-26T23:13:24.575Z,99.90
2019-04-26T23:16:40.493Z,99.90
2019-04-26T23:19:55.865Z,99.90
2019-04-26T23:23:00.436Z,99.90
2019-04-26T23:26:06.310Z,99.90
2019-04-26T23:29:08.675Z,99.90
2019-04-26T23:32:18.348Z,99.90
2019-04-26T23:35:17.847Z,99.90
2019-04-26T23:38:21.208Z,99.90
2019-04-26T23:41:24.140Z,99.90
2019-04-26T23:44:27.061Z,99.90
2019-04-26T23:47:32.008Z,99.90
2019-04-26T23:50:35.436Z,99.90
2019-04-26T23:53:38.703Z,99.90
2019-04-26T23:56:43.414Z,99.90
2019-04-26T23:59:51.153Z,99.90
